Alden Manor, New York
Current Conditions -  °F | °C
As of 1:51 PM on Thursday 23 Oct 2014 (Local Time) from KJFK Reporting Station
Light Rain Light Rain  
Wind Chill: 12°   Ceiling: 2000
Heat Index: 12°   Visibility: 10mi
Dew Point:   Wind: 23mph
Humidity: 77%   Direction: 340°NNW
Pressure: 29.69"   Gusts: 31mph
Location:  40.7013°N, 73.7074°W
Report Text: KJFK 231751Z 34020G27KT 10SM -RA BKN020 OVC027 12/08 A2969 RMK AO2 PK WND 35033/1659 RAE1654B45 SLP053 P0000 60003 T01170078 10117 20106 58003
Loading
Personal Weather Stations






























Interactive Weather Map
Tropical Storm Tracking
New forecast layout! Learn more

10-Day Weather Forecast

Advertisements
Track Severe Weather on mobile